createdAt,value
2022-07-30T00:00:27.708Z,13.68
2022-07-30T00:01:29.427Z,13.60
2022-07-30T00:02:31.102Z,14.38
2022-07-30T00:03:34.012Z,14.38
2022-07-30T00:04:35.878Z,14.27
2022-07-30T00:05:37.626Z,14.30
2022-07-30T00:06:39.994Z,14.27
2022-07-30T00:07:41.740Z,15.02
2022-07-30T00:08:43.342Z,14.15
2022-07-30T00:09:45.097Z,14.55
2022-07-30T00:10:46.680Z,13.73
2022-07-30T00:11:51.995Z,13.57
2022-07-30T00:12:53.655Z,13.38
2022-07-30T00:13:55.659Z,14.30
2022-07-30T00:14:57.289Z,13.98
2022-07-30T00:15:58.940Z,13.85
2022-07-30T00:17:02.032Z,13.48
2022-07-30T00:18:05.323Z,13.10
2022-07-30T00:19:07.085Z,13.07
2022-07-30T00:20:10.579Z,13.93
2022-07-30T00:21:34.666Z,13.05
2022-07-30T00:22:36.635Z,13.15
2022-07-30T00:23:38.258Z,13.32
2022-07-30T00:24:39.864Z,12.70
2022-07-30T00:25:41.505Z,13.20
2022-07-30T00:26:43.116Z,12.75
2022-07-30T00:27:45.422Z,12.93
2022-07-30T00:28:47.101Z,13.00
2022-07-30T00:29:49.282Z,12.63
2022-07-30T00:30:52.729Z,12.88
2022-07-30T00:31:57.992Z,13.20
2022-07-30T00:32:59.657Z,12.48
2022-07-30T00:34:01.354Z,12.05
2022-07-30T00:35:03.495Z,12.55
2022-07-30T00:36:05.248Z,13.15
2022-07-30T00:37:06.866Z,13.60
2022-07-30T00:38:08.493Z,12.95
2022-07-30T00:39:10.142Z,12.65
2022-07-30T00:40:11.912Z,12.93
2022-07-30T00:41:15.577Z,14.25
2022-07-30T00:42:23.462Z,13.20
2022-07-30T00:43:25.071Z,13.68
2022-07-30T00:44:27.980Z,13.02
2022-07-30T00:45:29.723Z,13.07
2022-07-30T00:46:31.419Z,14.85
2022-07-30T00:47:33.069Z,13.98
2022-07-30T00:48:34.634Z,13.73
2022-07-30T00:49:36.213Z,13.05
2022-07-30T00:50:38.680Z,13.93
2022-07-30T00:51:40.254Z,13.30
2022-07-30T00:52:42.932Z,14.40
2022-07-30T00:53:44.532Z,14.00
2022-07-30T00:54:46.093Z,13.05
2022-07-30T00:55:47.911Z,14.38
2022-07-30T00:56:50.002Z,12.27
2022-07-30T00:57:51.627Z,12.00
2022-07-30T00:58:53.245Z,12.95
2022-07-30T00:59:55.646Z,11.98
2022-07-30T01:00:57.472Z,12.10
2022-07-30T01:02:01.746Z,12.40
2022-07-30T01:03:04.786Z,11.82
2022-07-30T01:04:11.499Z,12.23
2022-07-30T01:05:13.783Z,11.88
2022-07-30T01:06:15.712Z,12.15
2022-07-30T01:07:17.436Z,12.75
2022-07-30T01:08:19.029Z,13.02
2022-07-30T01:09:20.803Z,12.45
2022-07-30T01:10:22.675Z,12.65
2022-07-30T01:11:32.496Z,12.98
2022-07-30T01:12:34.353Z,12.73
2022-07-30T01:13:36.012Z,13.55
2022-07-30T01:14:38.561Z,14.07
2022-07-30T01:15:40.536Z,11.85
2022-07-30T01:16:43.257Z,13.00
2022-07-30T01:17:52.757Z,13.23
2022-07-30T01:19:16.624Z,13.32
2022-07-30T01:20:26.814Z,13.52
2022-07-30T01:21:37.402Z,12.75
2022-07-30T01:22:55.326Z,13.45
2022-07-30T01:24:06.749Z,13.23
2022-07-30T01:25:24.035Z,12.25
2022-07-30T01:26:26.591Z,12.93
2022-07-30T01:27:49.407Z,13.45
2022-07-30T01:28:56.081Z,12.88
2022-07-30T01:29:59.656Z,13.27
2022-07-30T01:31:03.882Z,12.75
2022-07-30T01:32:07.765Z,12.13
2022-07-30T01:33:14.988Z,12.82
2022-07-30T01:34:17.689Z,12.68
2022-07-30T01:35:21.817Z,11.63
2022-07-30T01:36:24.349Z,12.85
2022-07-30T01:37:28.149Z,12.15
2022-07-30T01:38:35.191Z,12.68
2022-07-30T01:39:38.664Z,12.80
2022-07-30T01:40:42.969Z,11.70
2022-07-30T01:41:45.271Z,12.10
2022-07-30T01:42:53.527Z,12.75
2022-07-30T01:43:55.982Z,12.52
2022-07-30T01:44:59.105Z,12.25
2022-07-30T01:46:02.953Z,13.55
2022-07-30T01:47:05.551Z,14.00
2022-07-30T01:48:09.925Z,15.25
2022-07-30T01:49:12.344Z,14.50
2022-07-30T01:50:15.225Z,15.10
2022-07-30T01:51:19.389Z,13.95
2022-07-30T01:52:22.567Z,14.60
2022-07-30T01:53:26.177Z,14.32
2022-07-30T01:54:29.562Z,14.02
2022-07-30T01:55:41.002Z,15.38
2022-07-30T01:56:44.437Z,15.52
2022-07-30T01:57:48.986Z,16.23
2022-07-30T01:58:52.530Z,15.43
2022-07-30T02:00:01.929Z,15.13
2022-07-30T02:01:04.041Z,15.75
2022-07-30T02:02:07.561Z,15.45
2022-07-30T02:03:10.821Z,14.88
2022-07-30T02:04:12.498Z,14.40
2022-07-30T02:05:14.687Z,16.02
2022-07-30T02:06:26.589Z,15.43
2022-07-30T02:07:36.866Z,15.30
2022-07-30T02:08:41.881Z,14.77
2022-07-30T02:10:05.464Z,16.15
2022-07-30T02:11:36.658Z,15.50
2022-07-30T02:12:47.313Z,15.27
2022-07-30T02:13:53.080Z,15.07
2022-07-30T02:15:11.761Z,14.75
2022-07-30T02:16:27.281Z,14.43
2022-07-30T02:18:01.077Z,14.25
2022-07-30T02:19:06.783Z,14.55
2022-07-30T02:20:11.333Z,15.02
2022-07-30T02:21:19.364Z,13.63
2022-07-30T02:22:23.412Z,15.30
2022-07-30T02:23:28.255Z,15.77
2022-07-30T02:24:32.301Z,15.68
2022-07-30T02:25:35.969Z,14.43
2022-07-30T02:26:38.873Z,15.57
2022-07-30T02:27:45.128Z,14.45
2022-07-30T02:28:51.368Z,15.55
2022-07-30T02:29:55.773Z,15.30
2022-07-30T02:31:00.109Z,15.73
2022-07-30T02:32:09.427Z,14.63
2022-07-30T02:33:14.116Z,15.02
2022-07-30T02:34:17.128Z,15.82
2022-07-30T02:35:21.241Z,15.43
2022-07-30T02:36:24.218Z,15.52
2022-07-30T02:37:42.805Z,14.23
2022-07-30T02:38:46.942Z,13.68
2022-07-30T02:39:51.050Z,13.93
2022-07-30T02:40:54.672Z,13.38
2022-07-30T02:41:58.019Z,14.20
2022-07-30T02:43:00.932Z,13.02
2022-07-30T02:44:04.455Z,12.60
2022-07-30T02:45:07.300Z,13.85
2022-07-30T02:46:12.061Z,13.30
2022-07-30T02:47:16.618Z,12.13
2022-07-30T02:48:34.185Z,13.18
2022-07-30T02:49:37.068Z,15.13
2022-07-30T02:50:40.216Z,15.77
2022-07-30T02:51:42.985Z,15.15
2022-07-30T02:52:45.344Z,14.98
2022-07-30T02:53:51.831Z,14.60
2022-07-30T02:54:56.328Z,14.30
2022-07-30T02:56:01.240Z,14.48
2022-07-30T02:57:04.397Z,15.10
2022-07-30T02:58:07.636Z,14.35
2022-07-30T02:59:11.156Z,14.90
2022-07-30T03:00:13.520Z,15.15
2022-07-30T03:01:18.320Z,14.20
2022-07-30T03:02:25.900Z,13.98
2022-07-30T03:03:32.789Z,13.35
2022-07-30T03:04:36.479Z,13.98
2022-07-30T03:05:41.501Z,14.68
2022-07-30T03:06:44.022Z,14.10
2022-07-30T03:07:46.588Z,14.48
2022-07-30T03:08:48.521Z,14.23
2022-07-30T03:09:53.423Z,13.63
2022-07-30T03:10:56.494Z,14.65
2022-07-30T03:11:59.048Z,14.20
2022-07-30T03:13:02.367Z,14.38
2022-07-30T03:14:04.275Z,15.00
2022-07-30T03:15:06.680Z,14.98
2022-07-30T03:16:10.809Z,14.38
2022-07-30T03:17:16.024Z,14.50
2022-07-30T03:18:19.184Z,14.60
2022-07-30T03:19:24.024Z,13.98
2022-07-30T03:20:29.635Z,14.10
2022-07-30T03:21:34.813Z,13.88
2022-07-30T03:22:41.787Z,14.57
2022-07-30T03:23:45.150Z,13.23
2022-07-30T03:24:49.301Z,14.32
2022-07-30T03:26:02.183Z,14.25
2022-07-30T03:27:05.510Z,14.18
2022-07-30T03:28:08.392Z,13.88
2022-07-30T03:29:11.821Z,12.57
2022-07-30T03:30:13.858Z,12.18
2022-07-30T03:31:16.981Z,11.40
2022-07-30T03:32:20.199Z,11.60
2022-07-30T03:33:38.092Z,11.50
2022-07-30T03:34:42.381Z,11.02
2022-07-30T03:35:47.198Z,11.65
2022-07-30T03:36:49.964Z,12.18
2022-07-30T03:37:51.924Z,11.57
2022-07-30T03:38:54.564Z,11.57
2022-07-30T03:39:58.185Z,11.80
2022-07-30T03:41:00.676Z,12.02
2022-07-30T03:42:03.576Z,11.35
2022-07-30T03:43:05.233Z,11.38
2022-07-30T03:44:21.359Z,11.63
2022-07-30T03:45:23.447Z,11.93
2022-07-30T03:46:26.576Z,11.40
2022-07-30T03:47:28.522Z,12.32
2022-07-30T03:48:33.568Z,12.75
2022-07-30T03:49:35.255Z,13.68
2022-07-30T03:50:37.928Z,13.32
2022-07-30T03:51:39.895Z,13.20
2022-07-30T03:52:42.052Z,14.10
2022-07-30T03:53:45.218Z,13.80
2022-07-30T03:54:48.606Z,13.63
2022-07-30T03:55:52.021Z,13.52
2022-07-30T03:56:53.887Z,14.40
2022-07-30T03:57:55.735Z,13.82
2022-07-30T03:58:57.438Z,15.25
2022-07-30T03:59:59.177Z,14.80
2022-07-30T04:01:00.906Z,14.70
2022-07-30T04:02:06.902Z,14.55
2022-07-30T04:03:10.564Z,14.38
2022-07-30T04:04:12.252Z,14.35
2022-07-30T04:05:14.952Z,13.90
2022-07-30T04:06:16.577Z,13.23
2022-07-30T04:07:18.502Z,14.40
2022-07-30T04:08:20.361Z,13.63
2022-07-30T04:09:22.926Z,13.88
2022-07-30T04:10:24.530Z,13.27
2022-07-30T04:11:41.318Z,13.88
2022-07-30T04:12:43.522Z,12.85
2022-07-30T04:13:45.199Z,13.70
2022-07-30T04:14:47.896Z,13.75
2022-07-30T04:16:34.324Z,13.25
2022-07-30T04:17:22.174Z,12.60
2022-07-30T04:18:26.912Z,12.32
2022-07-30T04:19:36.837Z,13.05
2022-07-30T04:20:43.557Z,12.80
2022-07-30T04:21:48.271Z,12.80
2022-07-30T04:22:51.083Z,12.80
2022-07-30T04:24:04.082Z,12.38
2022-07-30T04:25:08.828Z,12.40
2022-07-30T04:26:10.799Z,11.38
2022-07-30T04:27:12.860Z,12.80
2022-07-30T04:28:14.852Z,12.25
2022-07-30T04:29:21.417Z,11.57
2022-07-30T04:30:27.666Z,12.60
2022-07-30T04:31:40.724Z,12.15
2022-07-30T04:32:43.255Z,12.82
2022-07-30T04:33:47.968Z,12.27
2022-07-30T04:34:51.844Z,12.40
2022-07-30T04:35:53.974Z,12.57
2022-07-30T04:36:55.597Z,12.35
2022-07-30T04:37:57.643Z,13.07
2022-07-30T04:39:00.508Z,12.32
2022-07-30T04:40:02.155Z,12.27
2022-07-30T04:41:04.016Z,12.27
2022-07-30T04:42:05.636Z,12.63
2022-07-30T04:43:08.196Z,12.90
2022-07-30T04:44:09.799Z,11.43
2022-07-30T04:45:11.779Z,12.48
2022-07-30T04:46:15.491Z,13.00
2022-07-30T04:47:21.707Z,12.75
2022-07-30T04:48:23.485Z,12.63
2022-07-30T04:49:26.217Z,12.98
2022-07-30T04:50:29.165Z,12.68
2022-07-30T04:51:34.515Z,13.45
2022-07-30T04:52:36.629Z,13.27
2022-07-30T04:53:38.481Z,13.32
2022-07-30T04:54:46.216Z,13.20
2022-07-30T04:55:49.389Z,14.10
2022-07-30T04:57:00.886Z,12.95
2022-07-30T04:58:04.105Z,13.27
2022-07-30T04:59:06.909Z,13.55
2022-07-30T05:00:09.184Z,13.77
2022-07-30T05:01:12.563Z,13.13
2022-07-30T05:02:16.511Z,13.27
2022-07-30T05:03:19.191Z,12.75
2022-07-30T05:04:23.595Z,12.68
2022-07-30T05:05:26.963Z,13.05
2022-07-30T05:06:30.456Z,13.43
2022-07-30T05:07:32.964Z,13.35
2022-07-30T05:08:35.143Z,12.55
2022-07-30T05:09:37.146Z,13.45
2022-07-30T05:10:38.881Z,13.60
2022-07-30T05:11:40.589Z,13.68
2022-07-30T05:12:42.206Z,13.35
2022-07-30T05:13:46.130Z,13.27
2022-07-30T05:14:48.685Z,12.65
2022-07-30T05:15:50.416Z,13.75
2022-07-30T05:16:53.359Z,12.63
2022-07-30T05:17:54.963Z,11.52
2022-07-30T05:18:56.592Z,12.40
2022-07-30T05:19:58.853Z,12.63
2022-07-30T05:21:01.505Z,12.07
2022-07-30T05:22:06.681Z,12.25
2022-07-30T05:23:08.775Z,12.27
2022-07-30T05:24:10.521Z,12.45
2022-07-30T05:25:16.080Z,11.65
2022-07-30T05:26:21.905Z,12.75
2022-07-30T05:27:29.355Z,12.35
2022-07-30T05:28:31.166Z,13.40
2022-07-30T05:29:32.897Z,12.30
2022-07-30T05:30:34.535Z,12.80
2022-07-30T05:31:38.094Z,13.02
2022-07-30T05:32:39.876Z,13.32
2022-07-30T05:33:42.851Z,13.13
2022-07-30T05:34:45.114Z,12.80
2022-07-30T05:35:51.829Z,13.60
2022-07-30T05:36:53.595Z,13.25
2022-07-30T05:37:55.149Z,13.27
2022-07-30T05:38:56.948Z,13.02
2022-07-30T05:40:02.852Z,12.90
2022-07-30T05:41:05.192Z,13.20
2022-07-30T05:42:26.761Z,12.18
2022-07-30T05:43:28.356Z,12.63
2022-07-30T05:44:30.107Z,13.50
2022-07-30T05:45:31.860Z,13.27
2022-07-30T05:46:33.853Z,12.98
2022-07-30T05:47:36.030Z,13.43
2022-07-30T05:48:37.709Z,13.18
2022-07-30T05:49:39.356Z,13.77
2022-07-30T05:50:41.056Z,14.75
2022-07-30T05:51:42.889Z,13.90
2022-07-30T05:52:46.349Z,13.38
2022-07-30T05:53:48.110Z,12.52
2022-07-30T05:54:49.745Z,13.18
2022-07-30T05:55:51.359Z,14.23
2022-07-30T05:56:53.066Z,14.10
2022-07-30T05:57:54.746Z,12.88
2022-07-30T05:58:56.396Z,13.40
2022-07-30T05:59:58.027Z,11.93
2022-07-30T06:00:59.573Z,12.32
2022-07-30T06:02:03.246Z,12.90
2022-07-30T06:03:05.079Z,13.20
2022-07-30T06:04:06.746Z,12.57
2022-07-30T06:05:08.839Z,12.25
2022-07-30T06:06:10.573Z,12.30
2022-07-30T06:07:12.156Z,10.95
2022-07-30T06:08:13.782Z,11.45
2022-07-30T06:09:15.572Z,12.50
2022-07-30T06:10:17.501Z,12.45
2022-07-30T06:11:19.464Z,11.70
2022-07-30T06:12:21.081Z,12.18
2022-07-30T06:13:22.709Z,11.63
2022-07-30T06:14:24.564Z,11.98
2022-07-30T06:15:26.478Z,11.55
2022-07-30T06:16:28.272Z,11.65
2022-07-30T06:17:30.159Z,12.23
2022-07-30T06:18:32.130Z,11.98
2022-07-30T06:19:33.755Z,11.70
2022-07-30T06:20:35.392Z,12.70
2022-07-30T06:22:06.092Z,12.40
2022-07-30T06:22:58.700Z,11.82
2022-07-30T06:24:00.317Z,12.07
2022-07-30T06:25:01.995Z,12.48
2022-07-30T06:26:04.938Z,12.18
2022-07-30T06:27:06.599Z,12.25
2022-07-30T06:28:34.749Z,11.75
2022-07-30T06:29:29.972Z,12.57
2022-07-30T06:30:31.689Z,11.00
2022-07-30T06:31:34.318Z,12.32
2022-07-30T06:32:36.618Z,11.93
2022-07-30T06:33:38.385Z,11.52
2022-07-30T06:34:40.030Z,12.60
2022-07-30T06:35:42.063Z,11.95
2022-07-30T06:36:43.658Z,11.40
2022-07-30T06:38:05.771Z,11.80
2022-07-30T06:39:06.884Z,12.05
2022-07-30T06:40:09.270Z,12.57
2022-07-30T06:41:11.041Z,12.95
2022-07-30T06:42:12.674Z,11.73
2022-07-30T06:43:14.352Z,12.85
2022-07-30T06:44:15.954Z,12.50
2022-07-30T06:45:18.007Z,12.68
2022-07-30T06:46:19.689Z,12.40
2022-07-30T06:47:26.227Z,11.88
2022-07-30T06:48:29.903Z,12.07
2022-07-30T06:49:32.881Z,11.70
2022-07-30T06:50:36.837Z,11.73
2022-07-30T06:51:38.455Z,12.20
2022-07-30T06:52:40.073Z,12.32
2022-07-30T06:53:42.713Z,12.00
2022-07-30T06:54:44.562Z,12.10
2022-07-30T06:55:46.225Z,11.95
2022-07-30T06:56:47.906Z,11.38
2022-07-30T06:57:49.543Z,12.38
2022-07-30T06:58:51.228Z,12.15
2022-07-30T06:59:56.209Z,11.63
2022-07-30T07:00:59.194Z,11.60
2022-07-30T07:02:00.879Z,12.07
2022-07-30T07:03:02.460Z,12.20
2022-07-30T07:04:04.364Z,11.48
2022-07-30T07:05:07.464Z,11.48
2022-07-30T07:06:09.296Z,11.93
2022-07-30T07:07:13.895Z,12.50
2022-07-30T07:08:38.879Z,11.45
2022-07-30T07:09:44.590Z,10.60
2022-07-30T07:10:46.767Z,11.40
2022-07-30T07:11:48.365Z,11.43
2022-07-30T07:12:49.986Z,11.45
2022-07-30T07:13:51.603Z,11.55
2022-07-30T07:14:53.241Z,11.90
2022-07-30T07:15:55.499Z,12.02
2022-07-30T07:16:57.107Z,11.50
2022-07-30T07:17:58.714Z,11.27
2022-07-30T07:19:04.101Z,11.27
2022-07-30T07:20:06.359Z,12.05
2022-07-30T07:21:08.365Z,11.35
2022-07-30T07:22:09.944Z,11.40
2022-07-30T07:23:12.234Z,11.98
2022-07-30T07:24:14.060Z,12.35
2022-07-30T07:25:16.035Z,12.40
2022-07-30T07:26:17.769Z,11.75
2022-07-30T07:27:19.407Z,12.65
2022-07-30T07:28:21.135Z,11.50
2022-07-30T07:29:22.802Z,11.05
2022-07-30T07:30:24.598Z,12.13
2022-07-30T07:32:05.201Z,12.02
2022-07-30T07:32:47.982Z,11.30
2022-07-30T07:33:49.614Z,11.10
2022-07-30T07:34:51.219Z,12.20
2022-07-30T07:35:54.816Z,12.35
2022-07-30T07:36:56.562Z,12.55
2022-07-30T07:37:58.183Z,11.60
2022-07-30T07:38:59.816Z,11.55
2022-07-30T07:40:01.571Z,11.70
2022-07-30T07:41:03.238Z,11.40
2022-07-30T07:42:04.905Z,12.02
2022-07-30T07:43:06.533Z,11.85
2022-07-30T07:44:08.625Z,11.27
2022-07-30T07:45:10.721Z,11.25
2022-07-30T07:46:16.460Z,11.52
2022-07-30T07:47:19.079Z,11.25
2022-07-30T07:48:20.853Z,10.85
2022-07-30T07:49:22.503Z,11.38
2022-07-30T07:50:24.317Z,10.30
2022-07-30T07:51:46.924Z,11.32
2022-07-30T07:52:47.717Z,11.32
2022-07-30T07:54:18.728Z,11.60
2022-07-30T07:55:11.516Z,11.30
2022-07-30T07:56:15.813Z,11.10
2022-07-30T07:57:17.448Z,10.70
2022-07-30T07:58:25.435Z,11.40
2022-07-30T07:59:39.633Z,11.50
2022-07-30T08:00:42.557Z,11.65
2022-07-30T08:01:46.623Z,12.40
2022-07-30T08:02:49.568Z,11.93
2022-07-30T08:03:51.431Z,12.38
2022-07-30T08:04:53.988Z,11.88
2022-07-30T08:06:04.692Z,12.60
2022-07-30T08:07:08.132Z,12.40
2022-07-30T08:08:09.770Z,11.82
2022-07-30T08:09:17.432Z,11.60
2022-07-30T08:10:19.106Z,11.93
2022-07-30T08:11:20.717Z,11.13
2022-07-30T08:12:22.437Z,10.93
2022-07-30T08:13:51.585Z,11.20
2022-07-30T08:14:48.214Z,10.20
2022-07-30T08:15:50.246Z,10.38
2022-07-30T08:16:51.866Z,11.52
2022-07-30T08:17:53.692Z,9.90
2022-07-30T08:18:55.354Z,9.95
2022-07-30T08:20:00.765Z,10.35
2022-07-30T08:21:02.644Z,9.65
2022-07-30T08:22:04.219Z,9.85
2022-07-30T08:23:07.105Z,9.48
2022-07-30T08:24:08.903Z,9.60
2022-07-30T08:25:10.636Z,9.80
2022-07-30T08:26:12.320Z,10.38
2022-07-30T08:27:13.918Z,10.20
2022-07-30T08:28:35.364Z,9.90
2022-07-30T08:29:37.426Z,10.27
2022-07-30T08:30:39.069Z,10.45
2022-07-30T08:31:40.663Z,10.18
2022-07-30T08:32:42.275Z,11.00
2022-07-30T08:33:43.851Z,10.45
2022-07-30T08:34:45.467Z,11.38
2022-07-30T08:35:54.851Z,11.30
2022-07-30T08:37:00.847Z,10.98
2022-07-30T08:38:02.429Z,10.93
2022-07-30T08:39:04.058Z,10.05
2022-07-30T08:40:06.215Z,11.02
2022-07-30T08:41:08.263Z,10.35
2022-07-30T08:42:10.193Z,10.77
2022-07-30T08:43:11.819Z,10.88
2022-07-30T08:44:13.469Z,10.57
2022-07-30T08:45:17.552Z,11.02
2022-07-30T08:46:23.562Z,10.55
2022-07-30T08:47:32.464Z,10.85
2022-07-30T08:48:35.248Z,10.80
2022-07-30T08:49:37.984Z,10.02
2022-07-30T08:50:40.053Z,10.18
2022-07-30T08:51:42.445Z,9.95
2022-07-30T08:52:44.698Z,10.18
2022-07-30T08:53:47.190Z,10.65
2022-07-30T08:54:48.877Z,10.38
2022-07-30T08:55:50.679Z,10.50
2022-07-30T08:56:52.608Z,10.93
2022-07-30T08:57:54.812Z,9.38
2022-07-30T08:58:57.355Z,10.35
2022-07-30T09:00:01.327Z,10.07
2022-07-30T09:01:06.025Z,9.43
2022-07-30T09:02:12.462Z,9.60
2022-07-30T09:03:14.599Z,9.77
2022-07-30T09:04:16.161Z,10.25
2022-07-30T09:05:17.840Z,9.70
2022-07-30T09:06:19.812Z,9.02
2022-07-30T09:07:21.536Z,9.82
2022-07-30T09:08:23.381Z,10.43
2022-07-30T09:09:25.062Z,9.70
2022-07-30T09:10:27.082Z,9.65
2022-07-30T09:11:28.741Z,9.93
2022-07-30T09:12:40.882Z,9.98
2022-07-30T09:13:44.469Z,9.80
2022-07-30T09:15:20.223Z,10.07
2022-07-30T09:16:24.580Z,10.63
2022-07-30T09:17:28.872Z,9.90
2022-07-30T09:18:37.912Z,9.88
2022-07-30T09:19:39.544Z,10.05
2022-07-30T09:20:41.238Z,9.85
2022-07-30T09:21:43.400Z,9.95
2022-07-30T09:22:51.780Z,9.13
2022-07-30T09:24:03.275Z,8.70
2022-07-30T09:25:05.024Z,8.55
2022-07-30T09:26:06.811Z,8.18
2022-07-30T09:27:10.103Z,7.97
2022-07-30T09:28:16.045Z,7.55
2022-07-30T09:29:20.711Z,6.80
2022-07-30T09:30:22.512Z,8.35
2022-07-30T09:31:24.289Z,8.25
2022-07-30T09:32:25.883Z,7.93
2022-07-30T09:33:40.237Z,8.25
2022-07-30T09:34:42.068Z,8.70
2022-07-30T09:35:43.880Z,8.15
2022-07-30T09:36:45.682Z,7.95
2022-07-30T09:37:47.994Z,7.95
2022-07-30T09:38:52.632Z,8.13
2022-07-30T09:39:58.867Z,8.65
2022-07-30T09:41:04.942Z,9.00
2022-07-30T09:42:22.845Z,9.25
2022-07-30T09:43:27.681Z,8.27
2022-07-30T09:44:30.395Z,8.70
2022-07-30T09:45:34.822Z,8.55
2022-07-30T09:46:47.101Z,8.52
2022-07-30T09:47:49.411Z,7.82
2022-07-30T09:48:51.075Z,8.00
2022-07-30T09:51:56.278Z,8.07
2022-07-30T09:53:11.839Z,8.55
2022-07-30T09:54:13.946Z,8.45
2022-07-30T09:55:30.705Z,8.73
2022-07-30T09:56:32.334Z,7.93
2022-07-30T09:57:34.119Z,8.02
2022-07-30T09:58:40.676Z,7.70
2022-07-30T09:59:47.945Z,8.23
2022-07-30T10:00:58.117Z,7.78
2022-07-30T10:02:03.837Z,8.02
2022-07-30T10:03:21.624Z,8.60
2022-07-30T10:04:36.558Z,8.55
2022-07-30T10:05:53.541Z,9.20
2022-07-30T10:06:56.545Z,8.93
2022-07-30T10:08:02.602Z,8.18
2022-07-30T10:09:14.180Z,8.65
2022-07-30T10:10:20.842Z,9.07
2022-07-30T10:11:23.953Z,7.80
2022-07-30T10:12:26.636Z,8.70
2022-07-30T10:13:29.563Z,8.45
2022-07-30T10:14:42.250Z,8.80
2022-07-30T10:15:45.141Z,8.68
2022-07-30T10:16:47.496Z,8.27
2022-07-30T10:17:49.846Z,8.38
2022-07-30T10:18:52.209Z,8.45
2022-07-30T10:19:54.749Z,8.35
2022-07-30T10:20:56.619Z,8.63
2022-07-30T10:22:01.470Z,8.90
2022-07-30T10:23:09.245Z,8.38
2022-07-30T10:24:12.873Z,8.43
2022-07-30T10:25:23.230Z,8.52
2022-07-30T10:26:34.806Z,8.25
2022-07-30T10:27:37.221Z,8.13
2022-07-30T10:28:42.871Z,8.50
2022-07-30T10:29:45.272Z,8.45
2022-07-30T10:30:50.144Z,8.23
2022-07-30T10:31:54.426Z,8.43
2022-07-30T10:32:58.659Z,8.80
2022-07-30T10:34:02.438Z,9.13
2022-07-30T10:35:05.392Z,8.48
2022-07-30T10:36:10.321Z,8.98
2022-07-30T10:37:13.490Z,9.63
2022-07-30T10:38:17.348Z,8.75
2022-07-30T10:39:24.731Z,8.82
2022-07-30T10:40:35.853Z,8.32
2022-07-30T10:42:05.616Z,7.88
2022-07-30T10:43:17.240Z,8.85
2022-07-30T10:44:28.188Z,8.48
2022-07-30T10:45:46.324Z,8.20
2022-07-30T10:47:07.527Z,9.25
2022-07-30T10:48:10.947Z,8.65
2022-07-30T10:49:18.500Z,7.85
2022-07-30T10:50:26.746Z,8.18
2022-07-30T10:51:48.923Z,8.75
2022-07-30T10:52:57.956Z,8.82
2022-07-30T10:53:59.653Z,9.02
2022-07-30T10:55:01.267Z,7.97
2022-07-30T10:56:19.203Z,8.50
2022-07-30T10:57:32.191Z,8.10
2022-07-30T10:58:57.161Z,8.10
2022-07-30T11:00:04.022Z,7.88
2022-07-30T11:01:06.093Z,7.97
2022-07-30T11:02:20.535Z,8.00
2022-07-30T11:03:40.750Z,8.68
2022-07-30T11:04:46.847Z,7.80
2022-07-30T11:05:50.449Z,8.68
2022-07-30T11:07:17.268Z,8.25
2022-07-30T11:08:42.607Z,8.65
2022-07-30T11:09:44.772Z,7.60
2022-07-30T11:12:01.905Z,7.82
2022-07-30T11:12:53.011Z,7.53
2022-07-30T11:13:57.435Z,7.60
2022-07-30T11:15:06.489Z,7.53
2022-07-30T11:16:21.933Z,7.90
2022-07-30T11:17:24.129Z,6.82
2022-07-30T11:18:27.556Z,6.93
2022-07-30T11:19:53.391Z,6.90
2022-07-30T11:21:16.026Z,7.00
2022-07-30T11:22:31.631Z,6.90
2022-07-30T11:23:39.523Z,6.85
2022-07-30T11:24:47.104Z,7.45
2022-07-30T11:25:54.794Z,7.45
2022-07-30T11:26:56.758Z,7.40
2022-07-30T11:28:00.767Z,7.85
2022-07-30T11:29:04.230Z,8.15
2022-07-30T11:30:27.018Z,8.13
2022-07-30T11:31:55.031Z,8.55
2022-07-30T11:33:18.653Z,8.02
2022-07-30T11:34:20.596Z,7.93
2022-07-30T11:35:34.613Z,7.95
2022-07-30T11:36:37.766Z,8.10
2022-07-30T11:38:07.466Z,8.07
2022-07-30T11:39:10.088Z,8.68
2022-07-30T11:40:12.971Z,7.72
2022-07-30T11:41:14.589Z,7.70
2022-07-30T11:42:36.739Z,8.23
2022-07-30T11:43:41.566Z,7.43
2022-07-30T11:44:46.900Z,7.43
2022-07-30T11:45:53.499Z,7.88
2022-07-30T11:46:55.862Z,7.65
2022-07-30T11:48:00.254Z,7.20
2022-07-30T11:49:08.278Z,7.53
2022-07-30T11:50:31.343Z,7.95
2022-07-30T11:51:44.046Z,7.25
2022-07-30T11:52:52.156Z,8.10
2022-07-30T11:54:05.316Z,7.13
2022-07-30T11:55:07.385Z,7.45
2022-07-30T11:56:10.481Z,7.32
2022-07-30T11:57:16.348Z,7.35
2022-07-30T11:58:26.973Z,7.13
2022-07-30T11:59:28.561Z,6.93
2022-07-30T12:00:47.963Z,6.95
2022-07-30T12:01:56.923Z,7.25
2022-07-30T12:03:02.411Z,7.78
2022-07-30T12:04:06.972Z,7.25
2022-07-30T12:05:08.735Z,7.15
2022-07-30T12:06:21.294Z,7.15
2022-07-30T12:07:25.854Z,7.00
2022-07-30T12:08:35.826Z,6.93
2022-07-30T12:09:38.012Z,7.30
2022-07-30T12:10:57.458Z,6.38
2022-07-30T12:12:00.987Z,6.90
2022-07-30T12:13:14.083Z,6.40
2022-07-30T12:14:15.751Z,6.60
2022-07-30T12:15:32.487Z,6.55
2022-07-30T12:16:34.664Z,6.57
2022-07-30T12:17:44.029Z,6.57
2022-07-30T12:18:47.157Z,7.13
2022-07-30T12:19:49.169Z,6.15
2022-07-30T12:20:59.610Z,6.63
2022-07-30T12:22:01.494Z,6.68
2022-07-30T12:23:09.681Z,6.85
2022-07-30T12:24:11.692Z,6.45
2022-07-30T12:25:14.584Z,6.78
2022-07-30T12:26:27.732Z,7.05
2022-07-30T12:27:29.358Z,6.95
2022-07-30T12:28:34.115Z,6.75
2022-07-30T12:29:36.428Z,7.30
2022-07-30T12:30:39.687Z,7.70
2022-07-30T12:31:41.914Z,6.60
2022-07-30T12:32:48.008Z,7.53
2022-07-30T12:33:49.724Z,7.10
2022-07-30T12:34:58.087Z,6.95
2022-07-30T12:36:00.996Z,6.90
2022-07-30T12:37:10.150Z,6.53
2022-07-30T12:38:12.313Z,7.00
2022-07-30T12:39:20.282Z,6.75
2022-07-30T12:40:21.919Z,7.25
2022-07-30T12:41:40.054Z,7.53
2022-07-30T12:42:54.146Z,7.50
2022-07-30T12:43:56.343Z,7.25
2022-07-30T12:44:58.355Z,7.28
2022-07-30T12:46:00.532Z,6.63
2022-07-30T12:47:04.515Z,6.47
2022-07-30T12:48:11.324Z,6.53
2022-07-30T12:49:22.738Z,6.90
2022-07-30T12:50:25.788Z,6.97
2022-07-30T12:51:32.701Z,7.22
2022-07-30T12:52:38.323Z,7.07
2022-07-30T12:53:39.986Z,6.82
2022-07-30T12:54:42.214Z,7.07
2022-07-30T12:55:44.589Z,7.07
2022-07-30T12:57:04.546Z,7.10
2022-07-30T12:58:08.600Z,7.00
2022-07-30T12:59:21.771Z,7.25
2022-07-30T13:00:25.637Z,7.53
2022-07-30T13:01:44.437Z,7.65
2022-07-30T13:02:46.120Z,6.70
2022-07-30T13:03:47.950Z,6.65
2022-07-30T13:05:10.185Z,7.03
2022-07-30T13:06:14.978Z,7.30
2022-07-30T13:07:16.810Z,7.63
2022-07-30T13:08:18.661Z,7.00
2022-07-30T13:09:21.156Z,7.75
2022-07-30T13:10:25.145Z,6.93
2022-07-30T13:11:48.968Z,7.60
2022-07-30T13:12:51.303Z,7.40
2022-07-30T13:13:53.518Z,8.65
2022-07-30T13:14:55.516Z,9.13
2022-07-30T13:16:01.378Z,7.38
2022-07-30T13:17:04.250Z,7.38
2022-07-30T13:18:06.310Z,7.05
2022-07-30T13:19:11.683Z,6.90
2022-07-30T13:20:17.524Z,7.22
2022-07-30T13:21:19.600Z,7.40
2022-07-30T13:22:21.717Z,7.13
2022-07-30T13:23:24.536Z,7.80
2022-07-30T13:24:26.113Z,7.30
2022-07-30T13:25:28.190Z,7.00
2022-07-30T13:26:42.385Z,6.93
2022-07-30T13:27:44.076Z,7.88
2022-07-30T13:28:48.621Z,6.93
2022-07-30T13:29:50.189Z,8.05
2022-07-30T13:30:52.434Z,7.53
2022-07-30T13:31:54.078Z,6.95
2022-07-30T13:32:55.712Z,7.35
2022-07-30T13:33:57.372Z,7.72
2022-07-30T13:35:01.609Z,7.47
2022-07-30T13:36:04.119Z,7.53
2022-07-30T13:37:05.917Z,6.82
2022-07-30T13:38:08.040Z,7.30
2022-07-30T13:39:11.288Z,7.07
2022-07-30T13:40:12.999Z,7.20
2022-07-30T13:41:16.572Z,8.07
2022-07-30T13:42:18.185Z,7.43
2022-07-30T13:43:20.582Z,8.18
2022-07-30T13:44:22.176Z,8.15
2022-07-30T13:45:23.845Z,7.65
2022-07-30T13:46:25.464Z,7.35
2022-07-30T13:47:27.069Z,7.47
2022-07-30T13:48:28.925Z,7.38
2022-07-30T13:49:30.570Z,7.40
2022-07-30T13:50:32.230Z,7.60
2022-07-30T13:51:34.319Z,6.45
2022-07-30T13:52:36.016Z,7.45
2022-07-30T13:53:37.653Z,7.50
2022-07-30T13:54:39.260Z,8.00
2022-07-30T13:55:42.833Z,7.25
2022-07-30T13:56:44.397Z,8.07
2022-07-30T13:57:46.699Z,7.60
2022-07-30T13:58:48.461Z,8.05
2022-07-30T13:59:50.042Z,8.40
2022-07-30T14:00:51.853Z,7.78
2022-07-30T14:01:53.529Z,8.20
2022-07-30T14:02:55.416Z,8.20
2022-07-30T14:03:57.047Z,8.48
2022-07-30T14:04:58.797Z,8.40
2022-07-30T14:06:10.618Z,8.18
2022-07-30T14:07:12.961Z,8.10
2022-07-30T14:08:14.532Z,8.68
2022-07-30T14:09:17.140Z,8.52